sensor_id;sensor_type;location;lat;lon;timestamp;P1;durP1;ratioP1;P2;durP2;ratioP2
11090;SDS011;5599;52.210;21.046;2023-03-23T00:00:33;29.40;;;23.13;;
11090;SDS011;5599;52.210;21.046;2023-03-23T00:03:03;27.13;;;23.30;;
11090;SDS011;5599;52.210;21.046;2023-03-23T00:05:31;28.67;;;23.37;;
11090;SDS011;5599;52.210;21.046;2023-03-23T00:07:59;28.07;;;23.13;;
11090;SDS011;5599;52.210;21.046;2023-03-23T00:10:29;28.53;;;23.30;;
11090;SDS011;5599;52.210;21.046;2023-03-23T00:13:00;27.43;;;24.50;;
11090;SDS011;5599;52.210;21.046;2023-03-23T00:15:28;28.50;;;23.10;;
11090;SDS011;5599;52.210;21.046;2023-03-23T00:17:59;28.60;;;23.90;;
11090;SDS011;5599;52.210;21.046;2023-03-23T00:20:30;27.43;;;23.83;;
11090;SDS011;5599;52.210;21.046;2023-03-23T00:23:06;29.57;;;23.27;;
11090;SDS011;5599;52.210;21.046;2023-03-23T00:25:34;27.80;;;23.83;;
11090;SDS011;5599;52.210;21.046;2023-03-23T00:28:04;31.97;;;25.13;;
11090;SDS011;5599;52.210;21.046;2023-03-23T00:30:32;31.47;;;24.27;;
11090;SDS011;5599;52.210;21.046;2023-03-23T00:33:02;29.50;;;24.73;;
11090;SDS011;5599;52.210;21.046;2023-03-23T00:35:31;33.97;;;24.77;;
11090;SDS011;5599;52.210;21.046;2023-03-23T00:37:59;31.03;;;24.83;;
11090;SDS011;5599;52.210;21.046;2023-03-23T00:40:27;32.30;;;24.63;;
11090;SDS011;5599;52.210;21.046;2023-03-23T00:42:56;29.23;;;25.70;;
11090;SDS011;5599;52.210;21.046;2023-03-23T00:45:27;31.30;;;24.97;;
11090;SDS011;5599;52.210;21.046;2023-03-23T00:47:55;29.93;;;25.50;;
11090;SDS011;5599;52.210;21.046;2023-03-23T00:50:30;31.00;;;24.77;;
11090;SDS011;5599;52.210;21.046;2023-03-23T00:52:58;30.00;;;23.87;;
11090;SDS011;5599;52.210;21.046;2023-03-23T00:55:26;29.70;;;24.57;;
11090;SDS011;5599;52.210;21.046;2023-03-23T00:57:56;34.40;;;25.23;;
11090;SDS011;5599;52.210;21.046;2023-03-23T01:00:24;29.97;;;24.90;;
11090;SDS011;5599;52.210;21.046;2023-03-23T01:02:54;29.93;;;24.23;;
11090;SDS011;5599;52.210;21.046;2023-03-23T01:05:23;31.00;;;25.03;;
11090;SDS011;5599;52.210;21.046;2023-03-23T01:07:58;29.70;;;25.30;;
11090;SDS011;5599;52.210;21.046;2023-03-23T01:10:26;30.03;;;24.97;;
11090;SDS011;5599;52.210;21.046;2023-03-23T01:12:54;29.57;;;23.83;;
11090;SDS011;5599;52.210;21.046;2023-03-23T01:15:22;27.30;;;23.70;;
11090;SDS011;5599;52.210;21.046;2023-03-23T01:17:51;28.43;;;24.67;;
11090;SDS011;5599;52.210;21.046;2023-03-23T01:20:20;28.53;;;24.30;;
11090;SDS011;5599;52.210;21.046;2023-03-23T01:22:48;28.50;;;25.17;;
11090;SDS011;5599;52.210;21.046;2023-03-23T01:25:16;28.00;;;23.77;;
11090;SDS011;5599;52.210;21.046;2023-03-23T01:27:44;28.80;;;24.70;;
11090;SDS011;5599;52.210;21.046;2023-03-23T01:30:13;30.50;;;24.23;;
11090;SDS011;5599;52.210;21.046;2023-03-23T01:32:41;28.77;;;24.47;;
11090;SDS011;5599;52.210;21.046;2023-03-23T01:35:11;29.53;;;23.70;;
11090;SDS011;5599;52.210;21.046;2023-03-23T01:37:39;26.83;;;23.47;;
11090;SDS011;5599;52.210;21.046;2023-03-23T01:40:08;29.47;;;23.87;;
11090;SDS011;5599;52.210;21.046;2023-03-23T01:42:37;28.83;;;23.33;;
11090;SDS011;5599;52.210;21.046;2023-03-23T01:47:56;27.77;;;23.50;;
11090;SDS011;5599;52.210;21.046;2023-03-23T01:50:33;29.27;;;23.07;;
11090;SDS011;5599;52.210;21.046;2023-03-23T01:53:06;25.33;;;22.57;;
11090;SDS011;5599;52.210;21.046;2023-03-23T01:55:37;24.87;;;22.00;;
11090;SDS011;5599;52.210;21.046;2023-03-23T01:58:07;29.30;;;22.90;;
11090;SDS011;5599;52.210;21.046;2023-03-23T02:00:38;26.27;;;23.13;;
11090;SDS011;5599;52.210;21.046;2023-03-23T02:03:09;27.43;;;22.67;;
11090;SDS011;5599;52.210;21.046;2023-03-23T02:05:41;25.70;;;22.63;;
11090;SDS011;5599;52.210;21.046;2023-03-23T02:08:15;29.70;;;22.43;;
11090;SDS011;5599;52.210;21.046;2023-03-23T02:10:45;27.00;;;21.87;;
11090;SDS011;5599;52.210;21.046;2023-03-23T02:13:14;25.97;;;21.77;;
11090;SDS011;5599;52.210;21.046;2023-03-23T02:15:44;25.43;;;22.43;;
11090;SDS011;5599;52.210;21.046;2023-03-23T02:18:20;26.53;;;22.70;;
11090;SDS011;5599;52.210;21.046;2023-03-23T02:21:09;28.03;;;23.63;;
11090;SDS011;5599;52.210;21.046;2023-03-23T02:24:24;25.80;;;21.87;;
11090;SDS011;5599;52.210;21.046;2023-03-23T02:27:18;26.30;;;23.00;;
11090;SDS011;5599;52.210;21.046;2023-03-23T02:30:23;26.60;;;22.23;;
11090;SDS011;5599;52.210;21.046;2023-03-23T02:36:12;24.70;;;21.60;;
11090;SDS011;5599;52.210;21.046;2023-03-23T02:38:49;25.33;;;21.73;;
11090;SDS011;5599;52.210;21.046;2023-03-23T02:41:22;24.73;;;21.10;;
11090;SDS011;5599;52.210;21.046;2023-03-23T02:43:54;24.13;;;21.23;;
11090;SDS011;5599;52.210;21.046;2023-03-23T02:46:24;24.53;;;20.90;;
11090;SDS011;5599;52.210;21.046;2023-03-23T02:48:54;24.83;;;20.60;;
11090;SDS011;5599;52.210;21.046;2023-03-23T02:51:25;25.73;;;22.03;;
11090;SDS011;5599;52.210;21.046;2023-03-23T02:53:55;30.07;;;20.90;;
11090;SDS011;5599;52.210;21.046;2023-03-23T02:56:25;22.87;;;19.43;;
11090;SDS011;5599;52.210;21.046;2023-03-23T02:58:57;25.40;;;21.37;;
11090;SDS011;5599;52.210;21.046;2023-03-23T03:01:48;24.20;;;20.30;;
11090;SDS011;5599;52.210;21.046;2023-03-23T03:04:26;23.47;;;19.80;;
11090;SDS011;5599;52.210;21.046;2023-03-23T03:07:04;23.70;;;19.97;;
11090;SDS011;5599;52.210;21.046;2023-03-23T03:09:46;23.13;;;19.80;;
11090;SDS011;5599;52.210;21.046;2023-03-23T03:12:19;22.97;;;19.83;;
11090;SDS011;5599;52.210;21.046;2023-03-23T03:14:57;27.10;;;19.83;;
11090;SDS011;5599;52.210;21.046;2023-03-23T03:17:34;22.80;;;19.60;;
11090;SDS011;5599;52.210;21.046;2023-03-23T03:20:09;21.77;;;18.97;;
11090;SDS011;5599;52.210;21.046;2023-03-23T03:22:43;20.23;;;18.07;;
11090;SDS011;5599;52.210;21.046;2023-03-23T03:25:14;22.53;;;18.40;;
11090;SDS011;5599;52.210;21.046;2023-03-23T03:27:45;24.10;;;18.97;;
11090;SDS011;5599;52.210;21.046;2023-03-23T03:30:32;23.87;;;18.43;;
11090;SDS011;5599;52.210;21.046;2023-03-23T03:33:06;22.60;;;18.00;;
11090;SDS011;5599;52.210;21.046;2023-03-23T03:35:35;21.27;;;18.10;;
11090;SDS011;5599;52.210;21.046;2023-03-23T03:38:07;19.83;;;17.73;;
11090;SDS011;5599;52.210;21.046;2023-03-23T03:40:36;22.03;;;18.43;;
11090;SDS011;5599;52.210;21.046;2023-03-23T03:43:04;20.83;;;17.83;;
11090;SDS011;5599;52.210;21.046;2023-03-23T03:45:34;21.67;;;17.33;;
11090;SDS011;5599;52.210;21.046;2023-03-23T03:48:02;19.93;;;17.73;;
11090;SDS011;5599;52.210;21.046;2023-03-23T03:50:31;20.37;;;16.87;;
11090;SDS011;5599;52.210;21.046;2023-03-23T03:52:59;20.60;;;17.17;;
11090;SDS011;5599;52.210;21.046;2023-03-23T03:55:29;19.40;;;17.00;;
11090;SDS011;5599;52.210;21.046;2023-03-23T03:58:04;20.23;;;17.40;;
11090;SDS011;5599;52.210;21.046;2023-03-23T04:00:52;20.37;;;17.40;;
11090;SDS011;5599;52.210;21.046;2023-03-23T04:03:29;19.60;;;17.10;;
11090;SDS011;5599;52.210;21.046;2023-03-23T04:06:03;20.13;;;17.83;;
11090;SDS011;5599;52.210;21.046;2023-03-23T04:08:33;20.67;;;17.40;;
11090;SDS011;5599;52.210;21.046;2023-03-23T04:11:05;19.37;;;17.30;;
11090;SDS011;5599;52.210;21.046;2023-03-23T04:13:33;20.03;;;17.47;;
11090;SDS011;5599;52.210;21.046;2023-03-23T04:16:19;19.70;;;16.90;;
11090;SDS011;5599;52.210;21.046;2023-03-23T04:18:48;19.93;;;17.30;;
11090;SDS011;5599;52.210;21.046;2023-03-23T04:21:18;21.43;;;16.80;;
11090;SDS011;5599;52.210;21.046;2023-03-23T04:23:48;20.80;;;17.33;;
11090;SDS011;5599;52.210;21.046;2023-03-23T04:26:18;19.13;;;16.40;;
11090;SDS011;5599;52.210;21.046;2023-03-23T04:28:49;25.17;;;17.63;;
11090;SDS011;5599;52.210;21.046;2023-03-23T04:31:33;19.27;;;16.43;;
11090;SDS011;5599;52.210;21.046;2023-03-23T04:34:19;18.87;;;16.77;;
11090;SDS011;5599;52.210;21.046;2023-03-23T04:36:50;20.50;;;16.97;;
11090;SDS011;5599;52.210;21.046;2023-03-23T04:39:23;22.20;;;17.00;;
11090;SDS011;5599;52.210;21.046;2023-03-23T04:41:58;19.40;;;17.40;;
11090;SDS011;5599;52.210;21.046;2023-03-23T04:44:47;20.70;;;17.43;;
11090;SDS011;5599;52.210;21.046;2023-03-23T04:47:31;24.57;;;17.43;;
11090;SDS011;5599;52.210;21.046;2023-03-23T04:50:07;22.50;;;17.47;;
11090;SDS011;5599;52.210;21.046;2023-03-23T04:52:37;23.37;;;18.03;;
11090;SDS011;5599;52.210;21.046;2023-03-23T04:55:11;23.03;;;17.93;;
11090;SDS011;5599;52.210;21.046;2023-03-23T04:57:44;27.37;;;18.93;;
11090;SDS011;5599;52.210;21.046;2023-03-23T05:00:33;20.63;;;16.97;;
11090;SDS011;5599;52.210;21.046;2023-03-23T05:03:03;20.97;;;18.00;;
11090;SDS011;5599;52.210;21.046;2023-03-23T05:05:33;22.73;;;18.23;;
11090;SDS011;5599;52.210;21.046;2023-03-23T05:08:06;19.30;;;16.60;;
11090;SDS011;5599;52.210;21.046;2023-03-23T05:10:37;21.00;;;16.97;;
11090;SDS011;5599;52.210;21.046;2023-03-23T05:13:11;18.67;;;16.63;;
11090;SDS011;5599;52.210;21.046;2023-03-23T05:15:39;21.13;;;16.77;;
11090;SDS011;5599;52.210;21.046;2023-03-23T05:18:07;19.97;;;17.17;;
11090;SDS011;5599;52.210;21.046;2023-03-23T05:20:37;21.87;;;16.90;;
11090;SDS011;5599;52.210;21.046;2023-03-23T05:23:14;23.17;;;16.67;;
11090;SDS011;5599;52.210;21.046;2023-03-23T05:25:51;21.43;;;17.53;;
11090;SDS011;5599;52.210;21.046;2023-03-23T05:28:22;21.00;;;16.67;;
11090;SDS011;5599;52.210;21.046;2023-03-23T05:30:56;21.03;;;16.77;;
11090;SDS011;5599;52.210;21.046;2023-03-23T05:33:29;23.63;;;17.57;;
11090;SDS011;5599;52.210;21.046;2023-03-23T05:35:59;18.87;;;16.67;;
11090;SDS011;5599;52.210;21.046;2023-03-23T05:38:35;24.00;;;16.57;;
11090;SDS011;5599;52.210;21.046;2023-03-23T05:41:06;21.20;;;16.43;;
11090;SDS011;5599;52.210;21.046;2023-03-23T05:43:40;20.23;;;16.10;;
11090;SDS011;5599;52.210;21.046;2023-03-23T05:46:08;17.90;;;15.57;;
11090;SDS011;5599;52.210;21.046;2023-03-23T05:48:37;18.07;;;15.83;;
11090;SDS011;5599;52.210;21.046;2023-03-23T05:51:10;19.40;;;16.27;;
11090;SDS011;5599;52.210;21.046;2023-03-23T05:53:42;20.73;;;15.80;;
11090;SDS011;5599;52.210;21.046;2023-03-23T05:56:13;19.07;;;15.67;;
11090;SDS011;5599;52.210;21.046;2023-03-23T05:59:09;18.97;;;15.50;;
11090;SDS011;5599;52.210;21.046;2023-03-23T06:01:41;17.97;;;15.23;;
11090;SDS011;5599;52.210;21.046;2023-03-23T06:04:09;17.67;;;15.03;;
11090;SDS011;5599;52.210;21.046;2023-03-23T06:06:51;16.77;;;15.07;;
11090;SDS011;5599;52.210;21.046;2023-03-23T06:09:19;21.33;;;16.13;;
11090;SDS011;5599;52.210;21.046;2023-03-23T06:12:22;18.53;;;14.07;;
11090;SDS011;5599;52.210;21.046;2023-03-23T06:15:19;17.50;;;14.10;;
11090;SDS011;5599;52.210;21.046;2023-03-23T06:18:10;17.37;;;14.57;;
11090;SDS011;5599;52.210;21.046;2023-03-23T06:20:47;16.70;;;14.30;;
11090;SDS011;5599;52.210;21.046;2023-03-23T06:23:42;15.60;;;13.90;;
11090;SDS011;5599;52.210;21.046;2023-03-23T06:26:11;19.80;;;15.20;;
11090;SDS011;5599;52.210;21.046;2023-03-23T06:28:44;16.33;;;13.97;;
11090;SDS011;5599;52.210;21.046;2023-03-23T06:31:14;18.10;;;14.83;;
11090;SDS011;5599;52.210;21.046;2023-03-23T06:33:45;18.40;;;14.40;;
11090;SDS011;5599;52.210;21.046;2023-03-23T06:36:37;18.73;;;14.27;;
11090;SDS011;5599;52.210;21.046;2023-03-23T06:39:12;16.60;;;14.43;;
11090;SDS011;5599;52.210;21.046;2023-03-23T06:41:56;18.50;;;15.10;;
11090;SDS011;5599;52.210;21.046;2023-03-23T06:44:28;16.47;;;14.03;;
11090;SDS011;5599;52.210;21.046;2023-03-23T06:46:58;17.63;;;14.23;;
11090;SDS011;5599;52.210;21.046;2023-03-23T06:49:35;19.13;;;13.47;;
11090;SDS011;5599;52.210;21.046;2023-03-23T06:52:18;16.07;;;13.33;;
11090;SDS011;5599;52.210;21.046;2023-03-23T06:54:49;15.17;;;13.00;;
11090;SDS011;5599;52.210;21.046;2023-03-23T06:57:19;14.70;;;13.10;;
11090;SDS011;5599;52.210;21.046;2023-03-23T06:59:50;14.07;;;12.67;;
11090;SDS011;5599;52.210;21.046;2023-03-23T07:02:22;14.07;;;12.57;;
11090;SDS011;5599;52.210;21.046;2023-03-23T07:04:52;15.57;;;12.97;;
11090;SDS011;5599;52.210;21.046;2023-03-23T07:07:24;14.00;;;12.32;;
11090;SDS011;5599;52.210;21.046;2023-03-23T07:10:12;16.27;;;12.68;;
11090;SDS011;5599;52.210;21.046;2023-03-23T07:12:41;15.43;;;12.23;;
11090;SDS011;5599;52.210;21.046;2023-03-23T07:15:09;16.80;;;12.43;;
11090;SDS011;5599;52.210;21.046;2023-03-23T07:17:43;14.02;;;12.10;;
11090;SDS011;5599;52.210;21.046;2023-03-23T07:20:25;15.50;;;11.73;;
11090;SDS011;5599;52.210;21.046;2023-03-23T07:22:53;14.55;;;11.20;;
11090;SDS011;5599;52.210;21.046;2023-03-23T07:25:37;15.98;;;11.32;;
11090;SDS011;5599;52.210;21.046;2023-03-23T07:28:09;14.85;;;12.38;;
11090;SDS011;5599;52.210;21.046;2023-03-23T07:30:37;13.27;;;11.75;;
11090;SDS011;5599;52.210;21.046;2023-03-23T07:33:08;15.43;;;11.27;;
11090;SDS011;5599;52.210;21.046;2023-03-23T07:35:36;14.65;;;10.80;;
11090;SDS011;5599;52.210;21.046;2023-03-23T07:38:13;19.08;;;16.83;;
11090;SDS011;5599;52.210;21.046;2023-03-23T07:40:46;14.23;;;11.23;;
11090;SDS011;5599;52.210;21.046;2023-03-23T07:43:17;12.75;;;9.95;;
11090;SDS011;5599;52.210;21.046;2023-03-23T07:45:56;15.50;;;11.02;;
11090;SDS011;5599;52.210;21.046;2023-03-23T07:48:33;14.25;;;11.38;;
11090;SDS011;5599;52.210;21.046;2023-03-23T07:51:02;12.43;;;10.02;;
11090;SDS011;5599;52.210;21.046;2023-03-23T07:53:33;14.95;;;9.73;;
11090;SDS011;5599;52.210;21.046;2023-03-23T07:56:27;12.20;;;9.27;;
11090;SDS011;5599;52.210;21.046;2023-03-23T07:59:12;13.55;;;9.57;;
11090;SDS011;5599;52.210;21.046;2023-03-23T08:01:42;10.13;;;9.00;;
11090;SDS011;5599;52.210;21.046;2023-03-23T08:04:33;14.70;;;10.02;;
11090;SDS011;5599;52.210;21.046;2023-03-23T08:07:22;12.93;;;10.43;;
11090;SDS011;5599;52.210;21.046;2023-03-23T08:10:23;10.40;;;8.95;;
11090;SDS011;5599;52.210;21.046;2023-03-23T08:13:28;13.13;;;9.70;;
11090;SDS011;5599;52.210;21.046;2023-03-23T08:16:08;11.45;;;8.95;;
11090;SDS011;5599;52.210;21.046;2023-03-23T08:18:59;13.20;;;9.50;;
11090;SDS011;5599;52.210;21.046;2023-03-23T08:21:35;10.43;;;8.85;;
11090;SDS011;5599;52.210;21.046;2023-03-23T08:24:22;14.00;;;10.73;;
11090;SDS011;5599;52.210;21.046;2023-03-23T08:27:08;11.00;;;9.18;;
11090;SDS011;5599;52.210;21.046;2023-03-23T08:29:56;10.77;;;8.52;;
11090;SDS011;5599;52.210;21.046;2023-03-23T08:33:03;11.32;;;8.63;;
11090;SDS011;5599;52.210;21.046;2023-03-23T08:35:58;9.23;;;8.15;;
11090;SDS011;5599;52.210;21.046;2023-03-23T08:38:51;10.50;;;8.07;;
11090;SDS011;5599;52.210;21.046;2023-03-23T08:41:38;11.93;;;7.95;;
11090;SDS011;5599;52.210;21.046;2023-03-23T08:44:16;14.35;;;7.65;;
11090;SDS011;5599;52.210;21.046;2023-03-23T08:47:14;9.98;;;7.57;;
11090;SDS011;5599;52.210;21.046;2023-03-23T08:49:42;12.48;;;9.68;;
11090;SDS011;5599;52.210;21.046;2023-03-23T08:52:31;7.80;;;6.90;;
11090;SDS011;5599;52.210;21.046;2023-03-23T08:55:22;13.13;;;7.20;;
11090;SDS011;5599;52.210;21.046;2023-03-23T08:58:13;8.57;;;7.53;;
11090;SDS011;5599;52.210;21.046;2023-03-23T09:01:00;7.82;;;6.50;;
11090;SDS011;5599;52.210;21.046;2023-03-23T09:03:48;8.40;;;6.30;;
11090;SDS011;5599;52.210;21.046;2023-03-23T09:06:40;7.57;;;6.35;;
11090;SDS011;5599;52.210;21.046;2023-03-23T09:09:09;7.07;;;5.72;;
11090;SDS011;5599;52.210;21.046;2023-03-23T09:11:39;6.95;;;5.97;;
11090;SDS011;5599;52.210;21.046;2023-03-23T09:14:07;8.68;;;6.13;;
11090;SDS011;5599;52.210;21.046;2023-03-23T09:16:35;8.10;;;6.22;;
11090;SDS011;5599;52.210;21.046;2023-03-23T09:19:03;7.75;;;6.30;;
11090;SDS011;5599;52.210;21.046;2023-03-23T09:21:31;7.13;;;6.43;;
11090;SDS011;5599;52.210;21.046;2023-03-23T09:23:59;6.97;;;6.22;;
11090;SDS011;5599;52.210;21.046;2023-03-23T09:26:28;8.07;;;6.40;;
11090;SDS011;5599;52.210;21.046;2023-03-23T09:28:58;7.45;;;6.45;;
11090;SDS011;5599;52.210;21.046;2023-03-23T09:31:26;7.93;;;6.00;;
11090;SDS011;5599;52.210;21.046;2023-03-23T09:33:54;12.02;;;6.28;;
11090;SDS011;5599;52.210;21.046;2023-03-23T09:36:24;7.63;;;6.22;;
11090;SDS011;5599;52.210;21.046;2023-03-23T09:38:56;10.35;;;6.55;;
11090;SDS011;5599;52.210;21.046;2023-03-23T09:41:35;7.70;;;6.25;;
11090;SDS011;5599;52.210;21.046;2023-03-23T09:44:19;9.25;;;6.70;;
11090;SDS011;5599;52.210;21.046;2023-03-23T09:46:54;8.38;;;7.50;;
11090;SDS011;5599;52.210;21.046;2023-03-23T09:49:28;8.63;;;7.03;;
11090;SDS011;5599;52.210;21.046;2023-03-23T09:52:01;11.95;;;9.43;;
11090;SDS011;5599;52.210;21.046;2023-03-23T09:54:33;10.82;;;6.32;;
11090;SDS011;5599;52.210;21.046;2023-03-23T09:57:03;8.65;;;7.00;;
11090;SDS011;5599;52.210;21.046;2023-03-23T09:59:41;8.07;;;6.47;;
11090;SDS011;5599;52.210;21.046;2023-03-23T10:02:17;7.88;;;6.35;;
11090;SDS011;5599;52.210;21.046;2023-03-23T10:04:49;7.57;;;6.00;;
11090;SDS011;5599;52.210;21.046;2023-03-23T10:07:19;8.73;;;7.25;;
11090;SDS011;5599;52.210;21.046;2023-03-23T10:09:51;6.85;;;6.10;;
11090;SDS011;5599;52.210;21.046;2023-03-23T10:12:23;8.25;;;5.68;;
11090;SDS011;5599;52.210;21.046;2023-03-23T10:15:02;9.75;;;6.15;;
11090;SDS011;5599;52.210;21.046;2023-03-23T10:17:40;9.88;;;6.35;;
11090;SDS011;5599;52.210;21.046;2023-03-23T10:20:18;7.65;;;6.03;;
11090;SDS011;5599;52.210;21.046;2023-03-23T10:23:05;10.30;;;6.20;;
11090;SDS011;5599;52.210;21.046;2023-03-23T10:25:41;6.45;;;5.63;;
11090;SDS011;5599;52.210;21.046;2023-03-23T10:28:13;6.53;;;5.80;;
11090;SDS011;5599;52.210;21.046;2023-03-23T10:30:46;6.55;;;4.97;;
11090;SDS011;5599;52.210;21.046;2023-03-23T10:33:19;6.10;;;4.80;;
11090;SDS011;5599;52.210;21.046;2023-03-23T10:35:53;5.13;;;4.63;;
11090;SDS011;5599;52.210;21.046;2023-03-23T10:38:27;6.72;;;5.15;;
11090;SDS011;5599;52.210;21.046;2023-03-23T10:41:00;9.73;;;6.47;;
11090;SDS011;5599;52.210;21.046;2023-03-23T10:43:32;6.45;;;5.15;;
11090;SDS011;5599;52.210;21.046;2023-03-23T10:46:04;9.30;;;4.68;;
11090;SDS011;5599;52.210;21.046;2023-03-23T10:48:39;7.70;;;5.35;;
11090;SDS011;5599;52.210;21.046;2023-03-23T10:51:09;5.40;;;4.93;;
11090;SDS011;5599;52.210;21.046;2023-03-23T10:53:42;7.32;;;5.30;;
11090;SDS011;5599;52.210;21.046;2023-03-23T10:56:21;5.15;;;4.65;;
11090;SDS011;5599;52.210;21.046;2023-03-23T10:58:52;6.30;;;5.40;;
11090;SDS011;5599;52.210;21.046;2023-03-23T11:01:29;5.25;;;4.75;;
11090;SDS011;5599;52.210;21.046;2023-03-23T11:03:58;7.38;;;3.85;;
11090;SDS011;5599;52.210;21.046;2023-03-23T11:06:29;4.82;;;3.40;;
11090;SDS011;5599;52.210;21.046;2023-03-23T11:09:00;4.97;;;3.85;;
11090;SDS011;5599;52.210;21.046;2023-03-23T11:11:37;3.70;;;3.40;;
11090;SDS011;5599;52.210;21.046;2023-03-23T11:14:14;5.55;;;3.47;;
11090;SDS011;5599;52.210;21.046;2023-03-23T11:16:50;4.88;;;3.75;;
11090;SDS011;5599;52.210;21.046;2023-03-23T11:19:23;5.35;;;3.97;;
11090;SDS011;5599;52.210;21.046;2023-03-23T11:21:55;3.45;;;3.15;;
11090;SDS011;5599;52.210;21.046;2023-03-23T11:24:26;4.95;;;3.35;;
11090;SDS011;5599;52.210;21.046;2023-03-23T11:26:55;5.45;;;4.22;;
11090;SDS011;5599;52.210;21.046;2023-03-23T11:29:25;9.88;;;7.43;;
11090;SDS011;5599;52.210;21.046;2023-03-23T11:32:03;3.85;;;3.50;;
11090;SDS011;5599;52.210;21.046;2023-03-23T11:34:34;5.82;;;3.55;;
11090;SDS011;5599;52.210;21.046;2023-03-23T11:37:09;4.45;;;3.95;;
11090;SDS011;5599;52.210;21.046;2023-03-23T11:39:48;3.60;;;3.22;;
11090;SDS011;5599;52.210;21.046;2023-03-23T11:42:24;5.28;;;3.40;;
11090;SDS011;5599;52.210;21.046;2023-03-23T11:45:05;5.30;;;3.88;;
11090;SDS011;5599;52.210;21.046;2023-03-23T11:47:48;5.60;;;4.05;;
11090;SDS011;5599;52.210;21.046;2023-03-23T11:50:25;3.50;;;3.15;;
11090;SDS011;5599;52.210;21.046;2023-03-23T11:52:58;5.10;;;2.80;;
11090;SDS011;5599;52.210;21.046;2023-03-23T11:55:32;3.80;;;3.05;;
11090;SDS011;5599;52.210;21.046;2023-03-23T11:58:07;3.13;;;2.83;;
11090;SDS011;5599;52.210;21.046;2023-03-23T12:00:41;4.22;;;3.00;;
11090;SDS011;5599;52.210;21.046;2023-03-23T12:03:17;4.47;;;2.60;;
11090;SDS011;5599;52.210;21.046;2023-03-23T12:05:55;3.70;;;2.70;;
11090;SDS011;5599;52.210;21.046;2023-03-23T12:08:36;5.05;;;2.45;;
11090;SDS011;5599;52.210;21.046;2023-03-23T12:11:14;4.25;;;3.13;;
11090;SDS011;5599;52.210;21.046;2023-03-23T12:13:56;4.63;;;3.25;;
11090;SDS011;5599;52.210;21.046;2023-03-23T12:16:37;5.10;;;3.60;;
11090;SDS011;5599;52.210;21.046;2023-03-23T12:19:30;6.10;;;3.63;;
11090;SDS011;5599;52.210;21.046;2023-03-23T12:22:06;5.40;;;2.80;;
11090;SDS011;5599;52.210;21.046;2023-03-23T12:24:48;5.72;;;2.80;;
11090;SDS011;5599;52.210;21.046;2023-03-23T12:27:24;4.57;;;2.70;;
11090;SDS011;5599;52.210;21.046;2023-03-23T12:30:02;6.18;;;2.58;;
11090;SDS011;5599;52.210;21.046;2023-03-23T12:32:44;6.60;;;2.90;;
11090;SDS011;5599;52.210;21.046;2023-03-23T12:35:25;4.57;;;2.50;;
11090;SDS011;5599;52.210;21.046;2023-03-23T12:38:08;3.67;;;3.28;;
11090;SDS011;5599;52.210;21.046;2023-03-23T12:40:52;4.20;;;3.00;;
11090;SDS011;5599;52.210;21.046;2023-03-23T12:43:34;3.83;;;3.10;;
11090;SDS011;5599;52.210;21.046;2023-03-23T12:46:13;6.28;;;3.13;;
11090;SDS011;5599;52.210;21.046;2023-03-23T12:48:56;6.72;;;3.70;;
11090;SDS011;5599;52.210;21.046;2023-03-23T12:51:32;5.45;;;3.85;;
11090;SDS011;5599;52.210;21.046;2023-03-23T12:54:07;6.45;;;4.22;;
11090;SDS011;5599;52.210;21.046;2023-03-23T12:56:42;7.22;;;3.80;;
11090;SDS011;5599;52.210;21.046;2023-03-23T12:59:19;5.72;;;4.07;;
11090;SDS011;5599;52.210;21.046;2023-03-23T13:01:55;4.72;;;4.03;;
11090;SDS011;5599;52.210;21.046;2023-03-23T13:04:30;6.43;;;4.00;;
11090;SDS011;5599;52.210;21.046;2023-03-23T13:07:05;5.47;;;3.85;;
11090;SDS011;5599;52.210;21.046;2023-03-23T13:09:43;6.32;;;3.60;;
11090;SDS011;5599;52.210;21.046;2023-03-23T13:12:17;4.00;;;3.42;;
11090;SDS011;5599;52.210;21.046;2023-03-23T13:14:49;5.90;;;3.65;;
11090;SDS011;5599;52.210;21.046;2023-03-23T13:17:26;5.38;;;3.83;;
11090;SDS011;5599;52.210;21.046;2023-03-23T13:20:11;4.35;;;3.88;;
11090;SDS011;5599;52.210;21.046;2023-03-23T13:22:52;7.10;;;4.10;;
11090;SDS011;5599;52.210;21.046;2023-03-23T13:25:27;3.40;;;3.10;;
11090;SDS011;5599;52.210;21.046;2023-03-23T13:28:12;4.70;;;3.90;;
11090;SDS011;5599;52.210;21.046;2023-03-23T13:30:54;9.55;;;4.20;;
11090;SDS011;5599;52.210;21.046;2023-03-23T13:33:24;5.82;;;3.63;;
11090;SDS011;5599;52.210;21.046;2023-03-23T13:35:53;6.50;;;4.10;;
11090;SDS011;5599;52.210;21.046;2023-03-23T13:38:24;6.05;;;4.25;;
11090;SDS011;5599;52.210;21.046;2023-03-23T13:40:55;8.02;;;3.80;;
11090;SDS011;5599;52.210;21.046;2023-03-23T13:43:27;7.30;;;6.60;;
11090;SDS011;5599;52.210;21.046;2023-03-23T13:46:06;3.55;;;2.95;;
11090;SDS011;5599;52.210;21.046;2023-03-23T13:48:40;5.55;;;3.67;;
11090;SDS011;5599;52.210;21.046;2023-03-23T13:51:25;3.17;;;2.70;;
11090;SDS011;5599;52.210;21.046;2023-03-23T13:54:06;4.75;;;3.22;;
11090;SDS011;5599;52.210;21.046;2023-03-23T13:56:47;3.72;;;2.95;;
11090;SDS011;5599;52.210;21.046;2023-03-23T13:59:28;3.97;;;2.80;;
11090;SDS011;5599;52.210;21.046;2023-03-23T14:05:10;6.10;;;2.97;;
11090;SDS011;5599;52.210;21.046;2023-03-23T14:07:52;6.28;;;3.15;;
11090;SDS011;5599;52.210;21.046;2023-03-23T14:10:24;4.93;;;2.70;;
11090;SDS011;5599;52.210;21.046;2023-03-23T14:12:59;6.70;;;2.80;;
11090;SDS011;5599;52.210;21.046;2023-03-23T14:15:29;4.88;;;2.80;;
11090;SDS011;5599;52.210;21.046;2023-03-23T14:18:00;3.67;;;3.08;;
11090;SDS011;5599;52.210;21.046;2023-03-23T14:20:31;8.48;;;3.15;;
11090;SDS011;5599;52.210;21.046;2023-03-23T14:23:01;5.65;;;3.20;;
11090;SDS011;5599;52.210;21.046;2023-03-23T14:25:31;5.15;;;3.33;;
11090;SDS011;5599;52.210;21.046;2023-03-23T14:27:59;4.07;;;3.10;;
11090;SDS011;5599;52.210;21.046;2023-03-23T14:30:33;5.57;;;3.97;;
11090;SDS011;5599;52.210;21.046;2023-03-23T14:33:03;6.85;;;3.80;;
11090;SDS011;5599;52.210;21.046;2023-03-23T14:35:34;4.43;;;3.50;;
11090;SDS011;5599;52.210;21.046;2023-03-23T14:38:04;9.88;;;3.85;;
11090;SDS011;5599;52.210;21.046;2023-03-23T14:40:43;8.10;;;4.20;;
11090;SDS011;5599;52.210;21.046;2023-03-23T14:43:12;7.55;;;3.60;;
11090;SDS011;5599;52.210;21.046;2023-03-23T14:45:43;5.63;;;3.65;;
11090;SDS011;5599;52.210;21.046;2023-03-23T14:48:13;4.10;;;3.45;;
11090;SDS011;5599;52.210;21.046;2023-03-23T14:50:48;4.55;;;3.55;;
11090;SDS011;5599;52.210;21.046;2023-03-23T14:53:19;8.45;;;4.35;;
11090;SDS011;5599;52.210;21.046;2023-03-23T14:55:52;7.13;;;3.75;;
11090;SDS011;5599;52.210;21.046;2023-03-23T14:58:23;7.82;;;3.83;;
11090;SDS011;5599;52.210;21.046;2023-03-23T15:00:53;6.25;;;4.28;;
11090;SDS011;5599;52.210;21.046;2023-03-23T15:03:25;7.60;;;5.60;;
11090;SDS011;5599;52.210;21.046;2023-03-23T15:05:56;5.28;;;4.40;;
11090;SDS011;5599;52.210;21.046;2023-03-23T15:08:27;5.47;;;4.25;;
11090;SDS011;5599;52.210;21.046;2023-03-23T15:11:02;7.25;;;5.10;;
11090;SDS011;5599;52.210;21.046;2023-03-23T15:13:34;7.63;;;4.38;;
11090;SDS011;5599;52.210;21.046;2023-03-23T15:16:04;10.38;;;4.63;;
11090;SDS011;5599;52.210;21.046;2023-03-23T15:18:35;10.20;;;4.40;;
11090;SDS011;5599;52.210;21.046;2023-03-23T15:21:09;10.25;;;5.30;;
11090;SDS011;5599;52.210;21.046;2023-03-23T15:23:42;5.57;;;4.28;;
11090;SDS011;5599;52.210;21.046;2023-03-23T15:26:21;10.25;;;4.25;;
11090;SDS011;5599;52.210;21.046;2023-03-23T15:29:04;5.20;;;4.70;;